sensor_id;sensor_type;location;lat;lon;timestamp;temperature;humidity
25933;DHT22;13731;51.166;4.474;2023-04-25T00:01:32;9.50;31.10
25933;DHT22;13731;51.166;4.474;2023-04-25T00:04:02;9.40;1.00
25933;DHT22;13731;51.166;4.474;2023-04-25T00:06:28;9.10;99.90
25933;DHT22;13731;51.166;4.474;2023-04-25T00:08:55;9.10;1.00
25933;DHT22;13731;51.166;4.474;2023-04-25T00:11:22;9.00;1.00
25933;DHT22;13731;51.166;4.474;2023-04-25T00:13:48;9.30;99.90
25933;DHT22;13731;51.166;4.474;2023-04-25T00:16:16;9.40;89.50
25933;DHT22;13731;51.166;4.474;2023-04-25T00:18:42;9.20;99.90
25933;DHT22;13731;51.166;4.474;2023-04-25T00:21:09;9.20;99.90
25933;DHT22;13731;51.166;4.474;2023-04-25T00:23:34;9.50;1.00
25933;DHT22;13731;51.166;4.474;2023-04-25T00:26:04;9.50;1.00
25933;DHT22;13731;51.166;4.474;2023-04-25T00:28:30;9.30;16.30
25933;DHT22;13731;51.166;4.474;2023-04-25T00:30:56;9.20;99.90
25933;DHT22;13731;51.166;4.474;2023-04-25T00:33:21;9.20;99.90
25933;DHT22;13731;51.166;4.474;2023-04-25T00:35:47;9.50;1.00
25933;DHT22;13731;51.166;4.474;2023-04-25T00:38:13;9.50;1.00
25933;DHT22;13731;51.166;4.474;2023-04-25T00:40:39;9.30;99.90
25933;DHT22;13731;51.166;4.474;2023-04-25T00:43:05;9.40;81.10
25933;DHT22;13731;51.166;4.474;2023-04-25T00:45:31;9.50;1.00
25933;DHT22;13731;51.166;4.474;2023-04-25T00:47:56;9.50;1.00
25933;DHT22;13731;51.166;4.474;2023-04-25T00:50:23;9.50;1.00
25933;DHT22;13731;51.166;4.474;2023-04-25T00:52:49;9.60;1.00
25933;DHT22;13731;51.166;4.474;2023-04-25T00:55:15;9.50;1.00
25933;DHT22;13731;51.166;4.474;2023-04-25T00:57:42;9.50;99.90
25933;DHT22;13731;51.166;4.474;2023-04-25T01:00:08;9.40;99.90
25933;DHT22;13731;51.166;4.474;2023-04-25T01:02:40;9.40;99.90
25933;DHT22;13731;51.166;4.474;2023-04-25T01:05:06;9.50;77.20
25933;DHT22;13731;51.166;4.474;2023-04-25T01:07:32;9.60;1.00
25933;DHT22;13731;51.166;4.474;2023-04-25T01:09:57;9.60;1.00
25933;DHT22;13731;51.166;4.474;2023-04-25T01:12:23;9.50;1.00
25933;DHT22;13731;51.166;4.474;2023-04-25T01:14:49;9.40;99.90
25933;DHT22;13731;51.166;4.474;2023-04-25T01:17:17;9.30;99.90
25933;DHT22;13731;51.166;4.474;2023-04-25T01:19:43;9.20;1.00
25933;DHT22;13731;51.166;4.474;2023-04-25T01:22:10;9.10;1.00
25933;DHT22;13731;51.166;4.474;2023-04-25T01:24:36;9.20;99.90
25933;DHT22;13731;51.166;4.474;2023-04-25T01:27:03;9.00;99.90
25933;DHT22;13731;51.166;4.474;2023-04-25T01:29:30;9.10;99.90
25933;DHT22;13731;51.166;4.474;2023-04-25T01:31:56;9.20;99.90
25933;DHT22;13731;51.166;4.474;2023-04-25T01:34:24;9.30;1.00
25933;DHT22;13731;51.166;4.474;2023-04-25T01:36:51;9.30;99.90
25933;DHT22;13731;51.166;4.474;2023-04-25T01:39:17;9.20;1.00
25933;DHT22;13731;51.166;4.474;2023-04-25T01:41:45;9.40;99.90
25933;DHT22;13731;51.166;4.474;2023-04-25T01:44:12;9.40;99.90
25933;DHT22;13731;51.166;4.474;2023-04-25T01:46:38;9.50;99.90
25933;DHT22;13731;51.166;4.474;2023-04-25T01:49:04;9.60;99.90
25933;DHT22;13731;51.166;4.474;2023-04-25T01:51:32;9.40;99.90
25933;DHT22;13731;51.166;4.474;2023-04-25T01:53:59;9.40;99.90
25933;DHT22;13731;51.166;4.474;2023-04-25T01:56:30;9.30;99.90
25933;DHT22;13731;51.166;4.474;2023-04-25T01:58:57;9.10;61.30
25933;DHT22;13731;51.166;4.474;2023-04-25T02:01:52;9.20;1.00
25933;DHT22;13731;51.166;4.474;2023-04-25T02:04:26;9.20;1.00
25933;DHT22;13731;51.166;4.474;2023-04-25T02:06:52;9.00;99.90
25933;DHT22;13731;51.166;4.474;2023-04-25T02:09:18;9.00;99.90
25933;DHT22;13731;51.166;4.474;2023-04-25T02:11:50;9.10;99.90
25933;DHT22;13731;51.166;4.474;2023-04-25T02:14:34;9.20;1.00
25933;DHT22;13731;51.166;4.474;2023-04-25T02:17:04;9.40;1.00
25933;DHT22;13731;51.166;4.474;2023-04-25T02:19:31;9.60;99.90
25933;DHT22;13731;51.166;4.474;2023-04-25T02:21:57;9.50;99.90
25933;DHT22;13731;51.166;4.474;2023-04-25T02:24:24;9.20;99.90
25933;DHT22;13731;51.166;4.474;2023-04-25T02:26:50;9.40;1.00
25933;DHT22;13731;51.166;4.474;2023-04-25T02:29:16;9.10;99.90
25933;DHT22;13731;51.166;4.474;2023-04-25T02:31:42;8.80;99.90
25933;DHT22;13731;51.166;4.474;2023-04-25T02:34:08;8.80;99.90
25933;DHT22;13731;51.166;4.474;2023-04-25T02:36:36;8.70;1.00
25933;DHT22;13731;51.166;4.474;2023-04-25T02:39:02;8.50;99.90
25933;DHT22;13731;51.166;4.474;2023-04-25T02:41:28;8.30;99.90
25933;DHT22;13731;51.166;4.474;2023-04-25T02:43:55;8.00;1.00
25933;DHT22;13731;51.166;4.474;2023-04-25T02:46:20;7.80;99.90
25933;DHT22;13731;51.166;4.474;2023-04-25T02:48:46;7.60;99.90
25933;DHT22;13731;51.166;4.474;2023-04-25T02:51:12;7.60;1.00
25933;DHT22;13731;51.166;4.474;2023-04-25T02:53:38;7.70;99.90
25933;DHT22;13731;51.166;4.474;2023-04-25T02:56:04;7.70;99.90
25933;DHT22;13731;51.166;4.474;2023-04-25T02:58:30;7.70;1.00
25933;DHT22;13731;51.166;4.474;2023-04-25T03:00:56;7.80;99.90
25933;DHT22;13731;51.166;4.474;2023-04-25T03:03:22;7.80;99.90
25933;DHT22;13731;51.166;4.474;2023-04-25T03:05:49;7.80;1.00
25933;DHT22;13731;51.166;4.474;2023-04-25T03:08:19;7.90;99.90
25933;DHT22;13731;51.166;4.474;2023-04-25T03:10:45;7.80;1.00
25933;DHT22;13731;51.166;4.474;2023-04-25T03:13:13;7.80;29.00
25933;DHT22;13731;51.166;4.474;2023-04-25T03:15:41;7.80;99.90
25933;DHT22;13731;51.166;4.474;2023-04-25T03:18:07;7.90;56.70
25933;DHT22;13731;51.166;4.474;2023-04-25T03:20:33;8.00;1.00
25933;DHT22;13731;51.166;4.474;2023-04-25T03:22:59;8.00;1.00
25933;DHT22;13731;51.166;4.474;2023-04-25T03:25:26;8.00;1.00
25933;DHT22;13731;51.166;4.474;2023-04-25T03:27:52;8.10;1.00
25933;DHT22;13731;51.166;4.474;2023-04-25T03:30:18;8.20;99.90
25933;DHT22;13731;51.166;4.474;2023-04-25T03:32:45;8.20;99.90
25933;DHT22;13731;51.166;4.474;2023-04-25T03:35:15;8.30;99.90
25933;DHT22;13731;51.166;4.474;2023-04-25T03:37:40;8.30;47.70
25933;DHT22;13731;51.166;4.474;2023-04-25T03:40:11;8.30;1.00
25933;DHT22;13731;51.166;4.474;2023-04-25T03:42:57;8.10;99.90
25933;DHT22;13731;51.166;4.474;2023-04-25T03:45:23;8.10;99.90
25933;DHT22;13731;51.166;4.474;2023-04-25T03:47:49;8.10;28.70
25933;DHT22;13731;51.166;4.474;2023-04-25T03:50:15;8.20;99.90
25933;DHT22;13731;51.166;4.474;2023-04-25T03:52:42;8.20;99.90
25933;DHT22;13731;51.166;4.474;2023-04-25T03:55:09;8.10;1.00
25933;DHT22;13731;51.166;4.474;2023-04-25T03:57:36;8.00;1.00
25933;DHT22;13731;51.166;4.474;2023-04-25T04:00:02;7.90;1.00
25933;DHT22;13731;51.166;4.474;2023-04-25T04:02:38;7.90;99.90
25933;DHT22;13731;51.166;4.474;2023-04-25T04:05:05;8.10;1.00
25933;DHT22;13731;51.166;4.474;2023-04-25T04:07:35;8.10;99.90
25933;DHT22;13731;51.166;4.474;2023-04-25T04:10:07;8.10;99.90
25933;DHT22;13731;51.166;4.474;2023-04-25T04:12:36;8.10;99.90
25933;DHT22;13731;51.166;4.474;2023-04-25T04:15:03;8.00;99.90
25933;DHT22;13731;51.166;4.474;2023-04-25T04:17:30;7.90;1.00
25933;DHT22;13731;51.166;4.474;2023-04-25T04:19:57;7.80;1.00
25933;DHT22;13731;51.166;4.474;2023-04-25T04:22:22;7.80;1.00
25933;DHT22;13731;51.166;4.474;2023-04-25T04:24:50;7.60;1.00
25933;DHT22;13731;51.166;4.474;2023-04-25T04:27:21;7.60;1.00
25933;DHT22;13731;51.166;4.474;2023-04-25T04:29:54;7.60;1.00
25933;DHT22;13731;51.166;4.474;2023-04-25T04:32:46;7.70;99.90
25933;DHT22;13731;51.166;4.474;2023-04-25T04:35:12;7.50;1.00
25933;DHT22;13731;51.166;4.474;2023-04-25T04:37:38;7.50;1.00
25933;DHT22;13731;51.166;4.474;2023-04-25T04:40:06;7.40;99.90
25933;DHT22;13731;51.166;4.474;2023-04-25T04:42:51;7.60;99.90
25933;DHT22;13731;51.166;4.474;2023-04-25T04:45:34;7.60;99.90
25933;DHT22;13731;51.166;4.474;2023-04-25T04:48:35;7.70;1.00
25933;DHT22;13731;51.166;4.474;2023-04-25T04:51:26;7.70;92.80
25933;DHT22;13731;51.166;4.474;2023-04-25T04:54:22;7.90;1.00
25933;DHT22;13731;51.166;4.474;2023-04-25T04:57:11;7.90;1.00
25933;DHT22;13731;51.166;4.474;2023-04-25T04:59:55;7.80;99.90
25933;DHT22;13731;51.166;4.474;2023-04-25T05:02:41;7.80;1.00
25933;DHT22;13731;51.166;4.474;2023-04-25T05:05:27;7.90;1.00
25933;DHT22;13731;51.166;4.474;2023-04-25T05:08:16;8.10;99.90
25933;DHT22;13731;51.166;4.474;2023-04-25T05:11:08;8.20;8.00
25933;DHT22;13731;51.166;4.474;2023-04-25T05:13:47;8.30;99.90
25933;DHT22;13731;51.166;4.474;2023-04-25T05:16:32;8.30;1.00
25933;DHT22;13731;51.166;4.474;2023-04-25T05:19:15;8.40;99.90
25933;DHT22;13731;51.166;4.474;2023-04-25T05:21:48;8.50;99.90
25933;DHT22;13731;51.166;4.474;2023-04-25T05:24:31;8.50;99.90
25933;DHT22;13731;51.166;4.474;2023-04-25T05:27:24;8.30;99.90
25933;DHT22;13731;51.166;4.474;2023-04-25T05:30:14;8.40;1.00
25933;DHT22;13731;51.166;4.474;2023-04-25T05:32:58;8.50;99.90
25933;DHT22;13731;51.166;4.474;2023-04-25T05:35:24;8.60;99.90
25933;DHT22;13731;51.166;4.474;2023-04-25T05:37:50;8.60;1.00
25933;DHT22;13731;51.166;4.474;2023-04-25T05:40:18;8.70;1.00
25933;DHT22;13731;51.166;4.474;2023-04-25T05:42:43;9.00;1.00
25933;DHT22;13731;51.166;4.474;2023-04-25T05:45:19;9.00;1.00
25933;DHT22;13731;51.166;4.474;2023-04-25T05:47:51;8.70;99.90
25933;DHT22;13731;51.166;4.474;2023-04-25T05:50:36;8.60;4.30
25933;DHT22;13731;51.166;4.474;2023-04-25T05:53:20;8.50;1.00
25933;DHT22;13731;51.166;4.474;2023-04-25T05:55:53;8.50;1.00
25933;DHT22;13731;51.166;4.474;2023-04-25T05:58:25;8.70;99.90
25933;DHT22;13731;51.166;4.474;2023-04-25T06:00:51;8.90;1.00
25933;DHT22;13731;51.166;4.474;2023-04-25T06:03:17;9.00;1.00
25933;DHT22;13731;51.166;4.474;2023-04-25T06:05:44;9.10;99.90
25933;DHT22;13731;51.166;4.474;2023-04-25T06:08:10;9.10;1.00
25933;DHT22;13731;51.166;4.474;2023-04-25T06:10:37;9.10;1.00
25933;DHT22;13731;51.166;4.474;2023-04-25T06:13:04;9.20;1.00
25933;DHT22;13731;51.166;4.474;2023-04-25T06:15:32;9.30;99.90
25933;DHT22;13731;51.166;4.474;2023-04-25T06:18:00;9.50;99.90
25933;DHT22;13731;51.166;4.474;2023-04-25T06:20:26;9.70;1.00
25933;DHT22;13731;51.166;4.474;2023-04-25T06:22:54;9.70;61.50
25933;DHT22;13731;51.166;4.474;2023-04-25T06:25:26;9.70;1.00
25933;DHT22;13731;51.166;4.474;2023-04-25T06:27:54;9.90;99.90
25933;DHT22;13731;51.166;4.474;2023-04-25T06:30:20;9.80;99.90
25933;DHT22;13731;51.166;4.474;2023-04-25T06:32:52;9.80;99.90
25933;DHT22;13731;51.166;4.474;2023-04-25T06:35:19;10.10;1.00
25933;DHT22;13731;51.166;4.474;2023-04-25T06:37:45;9.50;99.90
25933;DHT22;13731;51.166;4.474;2023-04-25T06:40:11;9.50;1.00
25933;DHT22;13731;51.166;4.474;2023-04-25T06:42:37;9.30;76.40
25933;DHT22;13731;51.166;4.474;2023-04-25T06:45:23;9.40;33.60
25933;DHT22;13731;51.166;4.474;2023-04-25T06:47:49;9.40;82.50
25933;DHT22;13731;51.166;4.474;2023-04-25T06:50:15;9.30;99.90
25933;DHT22;13731;51.166;4.474;2023-04-25T06:52:41;9.40;56.40
25933;DHT22;13731;51.166;4.474;2023-04-25T06:55:07;9.70;1.00
25933;DHT22;13731;51.166;4.474;2023-04-25T06:57:47;9.50;7.60
25933;DHT22;13731;51.166;4.474;2023-04-25T07:00:42;9.40;99.90
25933;DHT22;13731;51.166;4.474;2023-04-25T07:03:08;9.10;99.90
25933;DHT22;13731;51.166;4.474;2023-04-25T07:05:34;9.00;99.90
25933;DHT22;13731;51.166;4.474;2023-04-25T07:08:00;9.10;99.90
25933;DHT22;13731;51.166;4.474;2023-04-25T07:10:26;9.30;99.90
25933;DHT22;13731;51.166;4.474;2023-04-25T07:12:52;9.70;1.00
25933;DHT22;13731;51.166;4.474;2023-04-25T07:15:18;9.90;1.00
25933;DHT22;13731;51.166;4.474;2023-04-25T07:17:47;9.60;1.00
25933;DHT22;13731;51.166;4.474;2023-04-25T07:20:13;9.80;1.00
25933;DHT22;13731;51.166;4.474;2023-04-25T07:22:39;9.80;1.00
25933;DHT22;13731;51.166;4.474;2023-04-25T07:25:05;9.70;1.00
25933;DHT22;13731;51.166;4.474;2023-04-25T07:27:32;9.80;1.00
25933;DHT22;13731;51.166;4.474;2023-04-25T07:30:08;9.80;1.00
25933;DHT22;13731;51.166;4.474;2023-04-25T07:32:35;9.80;1.00
25933;DHT22;13731;51.166;4.474;2023-04-25T07:35:01;9.90;1.00
25933;DHT22;13731;51.166;4.474;2023-04-25T07:37:27;10.20;1.00
25933;DHT22;13731;51.166;4.474;2023-04-25T07:40:05;10.50;99.90
25933;DHT22;13731;51.166;4.474;2023-04-25T07:42:32;10.50;99.90
25933;DHT22;13731;51.166;4.474;2023-04-25T07:44:58;10.40;99.90
25933;DHT22;13731;51.166;4.474;2023-04-25T07:47:24;10.30;99.90
25933;DHT22;13731;51.166;4.474;2023-04-25T07:49:51;10.30;99.90
25933;DHT22;13731;51.166;4.474;2023-04-25T07:52:17;10.10;1.00
25933;DHT22;13731;51.166;4.474;2023-04-25T07:54:49;10.20;1.00
25933;DHT22;13731;51.166;4.474;2023-04-25T07:57:19;10.10;1.00
25933;DHT22;13731;51.166;4.474;2023-04-25T07:59:47;10.20;1.00
25933;DHT22;13731;51.166;4.474;2023-04-25T08:02:13;10.40;1.00
25933;DHT22;13731;51.166;4.474;2023-04-25T08:04:39;10.60;99.90
25933;DHT22;13731;51.166;4.474;2023-04-25T08:07:08;11.00;99.90
25933;DHT22;13731;51.166;4.474;2023-04-25T08:09:42;11.20;99.90
25933;DHT22;13731;51.166;4.474;2023-04-25T08:12:15;11.30;99.90
25933;DHT22;13731;51.166;4.474;2023-04-25T08:14:41;11.50;99.90
25933;DHT22;13731;51.166;4.474;2023-04-25T08:17:07;11.50;99.90
25933;DHT22;13731;51.166;4.474;2023-04-25T08:19:38;11.50;99.90
25933;DHT22;13731;51.166;4.474;2023-04-25T08:22:05;11.20;99.90
25933;DHT22;13731;51.166;4.474;2023-04-25T08:24:42;10.80;99.90
25933;DHT22;13731;51.166;4.474;2023-04-25T08:27:08;10.40;99.90
25933;DHT22;13731;51.166;4.474;2023-04-25T08:29:35;10.10;99.90
25933;DHT22;13731;51.166;4.474;2023-04-25T08:32:01;9.90;99.90
25933;DHT22;13731;51.166;4.474;2023-04-25T08:34:28;9.60;99.90
25933;DHT22;13731;51.166;4.474;2023-04-25T08:36:55;9.60;99.90
25933;DHT22;13731;51.166;4.474;2023-04-25T08:39:41;9.70;99.90
25933;DHT22;13731;51.166;4.474;2023-04-25T08:42:28;9.80;99.90
25933;DHT22;13731;51.166;4.474;2023-04-25T08:44:55;10.10;99.90
25933;DHT22;13731;51.166;4.474;2023-04-25T08:47:26;10.20;99.90
25933;DHT22;13731;51.166;4.474;2023-04-25T08:49:56;10.50;99.90
25933;DHT22;13731;51.166;4.474;2023-04-25T08:52:23;10.50;99.90
25933;DHT22;13731;51.166;4.474;2023-04-25T08:54:51;10.50;99.90
25933;DHT22;13731;51.166;4.474;2023-04-25T08:57:19;10.60;99.90
25933;DHT22;13731;51.166;4.474;2023-04-25T08:59:48;10.80;99.90
25933;DHT22;13731;51.166;4.474;2023-04-25T09:02:15;11.00;99.90
25933;DHT22;13731;51.166;4.474;2023-04-25T09:04:45;11.20;99.90
25933;DHT22;13731;51.166;4.474;2023-04-25T09:07:13;11.30;99.90
25933;DHT22;13731;51.166;4.474;2023-04-25T09:09:41;11.70;99.90
25933;DHT22;13731;51.166;4.474;2023-04-25T09:12:08;12.00;99.90
25933;DHT22;13731;51.166;4.474;2023-04-25T09:14:34;12.10;99.90
25933;DHT22;13731;51.166;4.474;2023-04-25T09:17:07;11.80;99.90
25933;DHT22;13731;51.166;4.474;2023-04-25T09:19:39;11.90;99.90
25933;DHT22;13731;51.166;4.474;2023-04-25T09:22:09;11.80;99.90
25933;DHT22;13731;51.166;4.474;2023-04-25T09:24:38;11.80;99.90
25933;DHT22;13731;51.166;4.474;2023-04-25T09:27:17;11.70;99.90
25933;DHT22;13731;51.166;4.474;2023-04-25T09:29:43;11.90;99.90
25933;DHT22;13731;51.166;4.474;2023-04-25T09:34:43;12.60;99.90
25933;DHT22;13731;51.166;4.474;2023-04-25T09:37:10;12.90;99.90
25933;DHT22;13731;51.166;4.474;2023-04-25T09:40:09;13.10;99.90
25933;DHT22;13731;51.166;4.474;2023-04-25T09:42:49;12.80;99.90
25933;DHT22;13731;51.166;4.474;2023-04-25T09:45:16;12.80;99.90
25933;DHT22;13731;51.166;4.474;2023-04-25T09:47:43;13.30;75.90
25933;DHT22;13731;51.166;4.474;2023-04-25T09:50:15;13.20;53.00
25933;DHT22;13731;51.166;4.474;2023-04-25T09:52:44;13.10;64.00
25933;DHT22;13731;51.166;4.474;2023-04-25T09:55:18;12.80;75.20
25933;DHT22;13731;51.166;4.474;2023-04-25T09:57:48;12.90;48.20
25933;DHT22;13731;51.166;4.474;2023-04-25T10:00:17;12.70;36.20
25933;DHT22;13731;51.166;4.474;2023-04-25T10:02:46;12.40;36.60
25933;DHT22;13731;51.166;4.474;2023-04-25T10:05:32;12.30;39.90
25933;DHT22;13731;51.166;4.474;2023-04-25T10:08:02;12.30;34.20
25933;DHT22;13731;51.166;4.474;2023-04-25T10:10:32;11.90;41.10
25933;DHT22;13731;51.166;4.474;2023-04-25T10:13:04;12.00;40.50
25933;DHT22;13731;51.166;4.474;2023-04-25T10:15:33;12.30;63.90
25933;DHT22;13731;51.166;4.474;2023-04-25T10:18:01;12.50;34.40
25933;DHT22;13731;51.166;4.474;2023-04-25T10:20:27;12.90;34.00
25933;DHT22;13731;51.166;4.474;2023-04-25T10:22:54;13.50;27.10
25933;DHT22;13731;51.166;4.474;2023-04-25T10:25:23;13.60;33.10
25933;DHT22;13731;51.166;4.474;2023-04-25T10:27:52;13.80;18.00
25933;DHT22;13731;51.166;4.474;2023-04-25T10:30:18;13.50;19.30
25933;DHT22;13731;51.166;4.474;2023-04-25T10:32:44;13.10;21.10
25933;DHT22;13731;51.166;4.474;2023-04-25T10:35:29;12.60;29.40
25933;DHT22;13731;51.166;4.474;2023-04-25T10:38:13;12.40;45.70
25933;DHT22;13731;51.166;4.474;2023-04-25T10:40:40;12.20;45.50
25933;DHT22;13731;51.166;4.474;2023-04-25T10:43:44;11.90;59.50
25933;DHT22;13731;51.166;4.474;2023-04-25T10:46:19;12.10;54.40
25933;DHT22;13731;51.166;4.474;2023-04-25T10:48:55;12.50;61.60
25933;DHT22;13731;51.166;4.474;2023-04-25T10:51:24;12.60;41.50
25933;DHT22;13731;51.166;4.474;2023-04-25T10:54:00;12.90;33.00
25933;DHT22;13731;51.166;4.474;2023-04-25T10:59:08;13.30;22.90
25933;DHT22;13731;51.166;4.474;2023-04-25T11:01:40;13.70;18.20
25933;DHT22;13731;51.166;4.474;2023-04-25T11:04:18;14.00;14.10
25933;DHT22;13731;51.166;4.474;2023-04-25T11:07:23;14.70;6.70
25933;DHT22;13731;51.166;4.474;2023-04-25T11:09:49;16.10;1.00
25933;DHT22;13731;51.166;4.474;2023-04-25T11:12:15;16.00;1.00
25933;DHT22;13731;51.166;4.474;2023-04-25T11:14:43;15.20;1.00
25933;DHT22;13731;51.166;4.474;2023-04-25T11:17:08;14.90;1.00
25933;DHT22;13731;51.166;4.474;2023-04-25T11:19:36;15.80;1.00
25933;DHT22;13731;51.166;4.474;2023-04-25T11:22:03;16.20;1.00
25933;DHT22;13731;51.166;4.474;2023-04-25T11:24:33;16.60;1.00
25933;DHT22;13731;51.166;4.474;2023-04-25T11:27:00;18.60;1.00
25933;DHT22;13731;51.166;4.474;2023-04-25T11:29:28;18.60;1.00
25933;DHT22;13731;51.166;4.474;2023-04-25T11:31:55;17.40;1.00
25933;DHT22;13731;51.166;4.474;2023-04-25T11:34:24;17.60;1.00
25933;DHT22;13731;51.166;4.474;2023-04-25T11:36:51;18.60;1.00
25933;DHT22;13731;51.166;4.474;2023-04-25T11:39:21;18.20;1.00
25933;DHT22;13731;51.166;4.474;2023-04-25T11:41:47;18.70;1.00
25933;DHT22;13731;51.166;4.474;2023-04-25T11:44:16;18.30;1.00
25933;DHT22;13731;51.166;4.474;2023-04-25T11:46:43;20.40;1.00
25933;DHT22;13731;51.166;4.474;2023-04-25T11:49:08;21.70;1.00
25933;DHT22;13731;51.166;4.474;2023-04-25T11:51:42;21.30;1.00
25933;DHT22;13731;51.166;4.474;2023-04-25T11:54:09;21.50;1.00
25933;DHT22;13731;51.166;4.474;2023-04-25T11:56:35;21.20;1.00
25933;DHT22;13731;51.166;4.474;2023-04-25T11:59:02;20.60;1.00
25933;DHT22;13731;51.166;4.474;2023-04-25T12:01:38;20.00;1.00
25933;DHT22;13731;51.166;4.474;2023-04-25T12:04:15;18.90;1.00
25933;DHT22;13731;51.166;4.474;2023-04-25T12:06:42;18.00;1.00
25933;DHT22;13731;51.166;4.474;2023-04-25T12:09:10;16.20;1.00
25933;DHT22;13731;51.166;4.474;2023-04-25T12:11:47;15.00;1.00
25933;DHT22;13731;51.166;4.474;2023-04-25T12:14:25;15.00;1.00
25933;DHT22;13731;51.166;4.474;2023-04-25T12:16:54;14.40;1.00
25933;DHT22;13731;51.166;4.474;2023-04-25T12:19:21;14.40;1.00
25933;DHT22;13731;51.166;4.474;2023-04-25T12:21:47;15.10;1.00
25933;DHT22;13731;51.166;4.474;2023-04-25T12:24:24;17.20;1.00
25933;DHT22;13731;51.166;4.474;2023-04-25T12:27:13;18.70;1.00
25933;DHT22;13731;51.166;4.474;2023-04-25T12:29:38;19.50;1.00
25933;DHT22;13731;51.166;4.474;2023-04-25T12:32:05;19.40;1.00
25933;DHT22;13731;51.166;4.474;2023-04-25T12:34:32;19.50;1.00
25933;DHT22;13731;51.166;4.474;2023-04-25T12:37:00;19.30;1.00
25933;DHT22;13731;51.166;4.474;2023-04-25T12:39:26;20.40;1.00
25933;DHT22;13731;51.166;4.474;2023-04-25T12:41:52;20.40;1.00
25933;DHT22;13731;51.166;4.474;2023-04-25T12:44:19;19.60;1.00
25933;DHT22;13731;51.166;4.474;2023-04-25T12:46:46;19.20;1.00
25933;DHT22;13731;51.166;4.474;2023-04-25T12:49:12;19.30;1.00
25933;DHT22;13731;51.166;4.474;2023-04-25T12:51:38;19.90;1.00
25933;DHT22;13731;51.166;4.474;2023-04-25T12:54:05;20.40;1.00
25933;DHT22;13731;51.166;4.474;2023-04-25T12:56:32;20.20;1.00
25933;DHT22;13731;51.166;4.474;2023-04-25T12:58:59;19.90;1.00
25933;DHT22;13731;51.166;4.474;2023-04-25T13:01:25;20.70;1.00
25933;DHT22;13731;51.166;4.474;2023-04-25T13:03:52;22.40;1.00
25933;DHT22;13731;51.166;4.474;2023-04-25T13:06:19;23.00;1.00
25933;DHT22;13731;51.166;4.474;2023-04-25T13:08:46;22.40;1.00
25933;DHT22;13731;51.166;4.474;2023-04-25T13:11:12;20.60;1.00
25933;DHT22;13731;51.166;4.474;2023-04-25T13:13:38;18.80;1.00
25933;DHT22;13731;51.166;4.474;2023-04-25T13:16:05;18.40;1.00
25933;DHT22;13731;51.166;4.474;2023-04-25T13:18:32;19.10;1.00
25933;DHT22;13731;51.166;4.474;2023-04-25T13:20:58;18.10;1.00
25933;DHT22;13731;51.166;4.474;2023-04-25T13:23:26;17.90;1.00
25933;DHT22;13731;51.166;4.474;2023-04-25T13:25:53;18.30;1.00
25933;DHT22;13731;51.166;4.474;2023-04-25T13:28:19;20.00;1.00
25933;DHT22;13731;51.166;4.474;2023-04-25T13:30:46;22.50;1.00
25933;DHT22;13731;51.166;4.474;2023-04-25T13:33:14;20.90;1.00
25933;DHT22;13731;51.166;4.474;2023-04-25T13:35:41;19.40;1.00
25933;DHT22;13731;51.166;4.474;2023-04-25T13:38:07;19.60;1.00
25933;DHT22;13731;51.166;4.474;2023-04-25T13:40:33;20.10;1.00
25933;DHT22;13731;51.166;4.474;2023-04-25T13:42:59;20.60;1.00
25933;DHT22;13731;51.166;4.474;2023-04-25T13:45:25;19.40;1.00
25933;DHT22;13731;51.166;4.474;2023-04-25T13:47:51;18.90;1.00
25933;DHT22;13731;51.166;4.474;2023-04-25T13:50:17;18.70;1.00
25933;DHT22;13731;51.166;4.474;2023-04-25T13:52:43;18.60;1.00
25933;DHT22;13731;51.166;4.474;2023-04-25T13:55:09;17.70;1.00
25933;DHT22;13731;51.166;4.474;2023-04-25T13:57:35;16.50;1.00
25933;DHT22;13731;51.166;4.474;2023-04-25T14:00:03;16.70;1.00
25933;DHT22;13731;51.166;4.474;2023-04-25T14:02:37;18.10;1.00
25933;DHT22;13731;51.166;4.474;2023-04-25T14:05:03;19.60;1.00
25933;DHT22;13731;51.166;4.474;2023-04-25T14:07:30;20.40;1.00
25933;DHT22;13731;51.166;4.474;2023-04-25T14:09:56;21.40;1.00
25933;DHT22;13731;51.166;4.474;2023-04-25T14:12:23;20.60;1.00
25933;DHT22;13731;51.166;4.474;2023-04-25T14:14:49;20.30;1.00
25933;DHT22;13731;51.166;4.474;2023-04-25T14:17:15;20.90;1.00
25933;DHT22;13731;51.166;4.474;2023-04-25T14:19:40;21.00;1.00
25933;DHT22;13731;51.166;4.474;2023-04-25T14:22:11;21.40;1.00
25933;DHT22;13731;51.166;4.474;2023-04-25T14:24:37;21.60;1.00
25933;DHT22;13731;51.166;4.474;2023-04-25T14:27:03;22.40;1.00
25933;DHT22;13731;51.166;4.474;2023-04-25T14:29:29;23.10;1.00
25933;DHT22;13731;51.166;4.474;2023-04-25T14:31:55;22.10;1.00
25933;DHT22;13731;51.166;4.474;2023-04-25T14:34:23;21.40;1.00
25933;DHT22;13731;51.166;4.474;2023-04-25T14:36:49;21.30;1.00
25933;DHT22;13731;51.166;4.474;2023-04-25T14:39:15;21.30;1.00
25933;DHT22;13731;51.166;4.474;2023-04-25T14:41:42;21.10;1.00
25933;DHT22;13731;51.166;4.474;2023-04-25T14:44:08;20.40;1.00
25933;DHT22;13731;51.166;4.474;2023-04-25T14:46:34;20.40;1.00
25933;DHT22;13731;51.166;4.474;2023-04-25T14:49:00;20.30;1.00
25933;DHT22;13731;51.166;4.474;2023-04-25T14:51:26;20.70;1.00
25933;DHT22;13731;51.166;4.474;2023-04-25T14:53:52;21.40;1.00
25933;DHT22;13731;51.166;4.474;2023-04-25T14:56:18;21.50;1.00
25933;DHT22;13731;51.166;4.474;2023-04-25T14:58:44;21.60;1.00
25933;DHT22;13731;51.166;4.474;2023-04-25T15:01:11;21.50;1.00
25933;DHT22;13731;51.166;4.474;2023-04-25T15:03:41;21.20;1.00
25933;DHT22;13731;51.166;4.474;2023-04-25T15:06:07;20.60;1.00
25933;DHT22;13731;51.166;4.474;2023-04-25T15:08:33;21.00;1.00
25933;DHT22;13731;51.166;4.474;2023-04-25T15:10:59;20.80;1.00
25933;DHT22;13731;51.166;4.474;2023-04-25T15:13:26;20.40;1.00
25933;DHT22;13731;51.166;4.474;2023-04-25T15:15:52;19.60;1.00
25933;DHT22;13731;51.166;4.474;2023-04-25T15:18:23;19.40;1.00
25933;DHT22;13731;51.166;4.474;2023-04-25T15:20:50;17.20;1.00
25933;DHT22;13731;51.166;4.474;2023-04-25T15:23:17;16.30;1.00
25933;DHT22;13731;51.166;4.474;2023-04-25T15:25:44;16.10;1.00
25933;DHT22;13731;51.166;4.474;2023-04-25T15:28:09;16.40;1.00
25933;DHT22;13731;51.166;4.474;2023-04-25T15:30:35;16.30;1.00
25933;DHT22;13731;51.166;4.474;2023-04-25T15:33:01;16.90;1.00
25933;DHT22;13731;51.166;4.474;2023-04-25T15:35:28;17.40;1.00
25933;DHT22;13731;51.166;4.474;2023-04-25T15:37:54;18.40;1.00
25933;DHT22;13731;51.166;4.474;2023-04-25T15:40:19;17.70;1.00
25933;DHT22;13731;51.166;4.474;2023-04-25T15:42:47;16.90;1.00
25933;DHT22;13731;51.166;4.474;2023-04-25T15:45:16;16.30;1.00
25933;DHT22;13731;51.166;4.474;2023-04-25T15:47:43;17.00;1.00
25933;DHT22;13731;51.166;4.474;2023-04-25T15:50:10;18.00;1.00
25933;DHT22;13731;51.166;4.474;2023-04-25T15:52:37;18.40;1.00
25933;DHT22;13731;51.166;4.474;2023-04-25T15:55:04;19.40;1.00
25933;DHT22;13731;51.166;4.474;2023-04-25T15:57:34;19.90;1.00
25933;DHT22;13731;51.166;4.474;2023-04-25T16:00:02;19.10;1.00
25933;DHT22;13731;51.166;4.474;2023-04-25T16:02:37;18.90;1.00
25933;DHT22;13731;51.166;4.474;2023-04-25T16:05:04;19.40;1.00
25933;DHT22;13731;51.166;4.474;2023-04-25T16:07:29;19.70;1.00